createdAt,value
2022-09-17T00:00:52.509Z,98228.19
2022-09-17T00:03:55.645Z,98228.22
2022-09-17T00:06:56.978Z,98232.63
2022-09-17T00:09:58.319Z,98236.06
2022-09-17T00:12:59.627Z,98243.00
2022-09-17T00:16:01.071Z,98245.66
2022-09-17T00:19:02.849Z,98251.75
2022-09-17T00:22:04.146Z,98256.97
2022-09-17T00:25:05.766Z,98257.88
2022-09-17T00:28:07.081Z,98255.25
2022-09-17T00:31:08.953Z,98258.78
2022-09-17T00:34:10.360Z,98270.09
2022-09-17T00:37:11.846Z,98264.91
2022-09-17T00:40:13.553Z,98265.00
2022-09-17T00:43:15.534Z,98243.34
2022-09-17T00:46:24.678Z,98240.78
2022-09-17T00:49:28.598Z,98237.31
2022-09-17T00:52:31.686Z,98225.19
2022-09-17T00:55:40.055Z,98221.72
2022-09-17T00:58:41.595Z,98224.31
2022-09-17T01:01:42.938Z,98230.41
2022-09-17T01:04:44.329Z,98228.69
2022-09-17T01:07:48.646Z,98224.34
2022-09-17T01:10:56.251Z,98226.06
2022-09-17T01:14:16.453Z,98224.34
2022-09-17T01:17:38.263Z,98221.75
2022-09-17T01:20:51.787Z,98217.38
2022-09-17T01:24:05.587Z,98232.16
2022-09-17T01:27:09.900Z,98232.13
2022-09-17T01:30:17.388Z,98231.28
2022-09-17T01:33:25.005Z,98245.19
2022-09-17T01:36:31.723Z,98245.19
2022-09-17T01:39:39.223Z,98243.47
2022-09-17T01:42:51.117Z,98259.94
2022-09-17T01:45:53.122Z,98249.53
2022-09-17T01:48:56.639Z,98244.31
2022-09-17T01:51:57.953Z,98247.78
2022-09-17T01:55:00.219Z,98249.53
2022-09-17T01:58:27.958Z,98253.91
2022-09-17T02:01:30.232Z,98249.56
2022-09-17T02:04:58.032Z,98242.63
2022-09-17T02:08:03.070Z,98246.09
2022-09-17T02:11:08.559Z,98250.44
2022-09-17T02:14:11.226Z,98254.78
2022-09-17T02:17:14.127Z,98251.31
2022-09-17T02:20:20.866Z,98252.19
2022-09-17T02:23:26.765Z,98244.38
2022-09-17T02:26:28.157Z,98246.13
2022-09-17T02:29:33.904Z,98245.25
2022-09-17T02:32:35.224Z,98247.00
2022-09-17T02:35:37.934Z,98244.41
2022-09-17T02:38:40.699Z,98246.13
2022-09-17T02:41:45.237Z,98243.50
2022-09-17T02:45:22.037Z,98243.50
2022-09-17T02:48:32.514Z,98245.25
2022-09-17T02:51:41.395Z,98247.84
2022-09-17T02:54:42.750Z,98247.00
2022-09-17T02:58:07.457Z,98247.00
2022-09-17T03:01:10.002Z,98245.28
2022-09-17T03:04:12.473Z,98242.66
2022-09-17T03:07:13.762Z,98240.94
2022-09-17T03:10:16.065Z,98246.13
2022-09-17T03:13:17.382Z,98249.63
2022-09-17T03:16:18.736Z,98245.28
2022-09-17T03:19:20.091Z,98243.53
2022-09-17T03:22:21.434Z,98234.88
2022-09-17T03:25:22.789Z,98244.38
2022-09-17T03:28:25.935Z,98242.69
2022-09-17T03:31:27.284Z,98242.66
2022-09-17T03:34:28.694Z,98254.81
2022-09-17T03:37:33.013Z,98258.28
2022-09-17T03:40:34.756Z,98257.44
2022-09-17T03:43:36.101Z,98255.69
2022-09-17T03:46:37.653Z,98254.81
2022-09-17T03:49:39.040Z,98256.56
2022-09-17T03:52:40.407Z,98259.13
2022-09-17T03:55:41.721Z,98269.56
2022-09-17T03:58:43.066Z,98271.28
2022-09-17T04:01:44.465Z,98277.38
2022-09-17T04:04:45.901Z,98282.56
2022-09-17T04:07:47.272Z,98274.78
2022-09-17T04:10:48.663Z,98280.84
2022-09-17T04:13:49.988Z,98274.75
2022-09-17T04:16:51.293Z,98282.56
2022-09-17T04:19:53.560Z,98278.25
2022-09-17T04:22:54.914Z,98286.94
2022-09-17T04:25:56.279Z,98286.91
2022-09-17T04:28:57.659Z,98289.50
2022-09-17T04:31:58.983Z,98296.47
2022-09-17T04:35:00.304Z,98300.81
2022-09-17T04:38:01.608Z,98306.03
2022-09-17T04:41:02.997Z,98303.41
2022-09-17T04:44:04.367Z,98305.13
2022-09-17T04:47:05.713Z,98319.88
2022-09-17T04:50:07.171Z,98310.34
2022-09-17T04:53:08.478Z,98317.28
2022-09-17T04:56:09.935Z,98321.63
2022-09-17T04:59:11.297Z,98319.00
2022-09-17T05:02:12.698Z,98314.66
2022-09-17T05:05:14.235Z,98335.50
2022-09-17T05:08:16.635Z,98332.00
2022-09-17T05:11:18.001Z,98337.25
2022-09-17T05:14:19.349Z,98340.72
2022-09-17T05:17:20.698Z,98338.13
2022-09-17T05:20:22.850Z,98340.72
2022-09-17T05:23:24.196Z,98340.69
2022-09-17T05:26:25.520Z,98340.69
2022-09-17T05:29:26.849Z,98346.78
2022-09-17T05:32:28.299Z,98344.19
2022-09-17T05:35:29.748Z,98347.66
2022-09-17T05:38:31.154Z,98342.44
2022-09-17T05:41:32.473Z,98345.03
2022-09-17T05:44:33.781Z,98348.53
2022-09-17T05:47:35.422Z,98359.78
2022-09-17T05:50:36.763Z,98364.97
2022-09-17T05:53:38.176Z,98363.25
2022-09-17T05:56:39.626Z,98367.59
2022-09-17T05:59:40.954Z,98366.75
2022-09-17T06:02:42.394Z,98369.34
2022-09-17T06:05:44.017Z,98374.56
2022-09-17T06:08:45.385Z,98373.69
2022-09-17T06:11:46.729Z,98375.44
2022-09-17T06:14:48.097Z,98369.34
2022-09-17T06:17:49.399Z,98374.56
2022-09-17T06:21:08.823Z,98380.63
2022-09-17T06:24:10.443Z,98373.69
2022-09-17T06:27:11.778Z,98381.47
2022-09-17T06:30:13.109Z,98376.28
2022-09-17T06:33:14.536Z,98384.09
2022-09-17T06:36:15.913Z,98380.59
2022-09-17T06:39:17.522Z,98382.34
2022-09-17T06:42:18.847Z,98378.84
2022-09-17T06:45:20.473Z,98389.28
2022-09-17T06:48:22.001Z,98393.63
2022-09-17T06:51:23.534Z,98388.38
2022-09-17T06:54:24.854Z,98393.63
2022-09-17T06:57:26.161Z,98405.75
2022-09-17T07:00:27.531Z,98397.94
2022-09-17T07:03:29.066Z,98403.97
2022-09-17T07:06:30.405Z,98407.47
2022-09-17T07:09:31.737Z,98406.59
2022-09-17T07:12:33.067Z,98408.38
2022-09-17T07:15:34.417Z,98410.97
2022-09-17T07:18:35.831Z,98411.81
2022-09-17T07:21:37.179Z,98416.16
2022-09-17T07:24:38.506Z,98415.28
2022-09-17T07:27:39.854Z,98415.25
2022-09-17T07:30:41.163Z,98421.31
2022-09-17T07:33:42.522Z,98418.72
2022-09-17T07:36:44.519Z,98422.19
2022-09-17T07:39:45.857Z,98417.00
2022-09-17T07:42:47.334Z,98417.88
2022-09-17T07:45:48.658Z,98416.13
2022-09-17T07:48:50.050Z,98421.31
2022-09-17T07:51:51.342Z,98423.91
2022-09-17T07:54:52.663Z,98433.44
2022-09-17T07:57:54.402Z,98433.41
2022-09-17T08:01:02.589Z,98429.94
2022-09-17T08:04:04.403Z,98436.88
2022-09-17T08:07:05.797Z,98438.63
2022-09-17T08:10:07.255Z,98450.75
2022-09-17T08:13:08.545Z,98449.91
2022-09-17T08:16:11.801Z,98447.31
2022-09-17T08:19:13.242Z,98454.25
2022-09-17T08:22:14.573Z,98456.84
2022-09-17T08:25:15.956Z,98449.94
2022-09-17T08:28:17.253Z,98450.78
2022-09-17T08:31:19.025Z,98443.84
2022-09-17T08:34:20.729Z,98449.09
2022-09-17T08:37:22.065Z,98444.75
2022-09-17T08:40:23.484Z,98448.22
2022-09-17T08:43:25.032Z,98459.47
2022-09-17T08:46:26.408Z,98457.75
2022-09-17T08:49:40.578Z,98457.75
2022-09-17T08:52:41.853Z,98468.13
2022-09-17T08:55:43.157Z,98465.56
2022-09-17T08:58:44.439Z,98472.50
2022-09-17T09:02:06.100Z,98475.94
2022-09-17T09:05:17.302Z,98470.78
2022-09-17T09:08:18.573Z,98469.94
2022-09-17T09:11:22.571Z,98476.03
2022-09-17T09:14:37.516Z,98486.44
2022-09-17T09:17:39.497Z,98480.38
2022-09-17T09:20:43.540Z,98480.38
2022-09-17T09:23:52.191Z,98481.28
2022-09-17T09:27:26.161Z,98480.41
2022-09-17T09:30:28.805Z,98472.59
2022-09-17T09:33:31.007Z,98483.91
2022-09-17T09:36:32.529Z,98489.97
2022-09-17T09:39:41.283Z,98491.72
2022-09-17T09:42:43.938Z,98484.78
2022-09-17T09:45:51.488Z,98498.66
2022-09-17T09:49:08.048Z,98498.66
2022-09-17T09:52:09.373Z,98499.53
2022-09-17T09:55:33.417Z,98496.06
2022-09-17T09:58:36.066Z,98496.06
2022-09-17T10:01:39.688Z,98503.91
2022-09-17T10:04:41.157Z,98499.56
2022-09-17T10:07:45.502Z,98496.09
2022-09-17T10:11:13.170Z,98496.13
2022-09-17T10:14:15.396Z,98506.56
2022-09-17T10:17:18.016Z,98509.16
2022-09-17T10:20:22.958Z,98510.91
2022-09-17T10:23:25.659Z,98509.16
2022-09-17T10:26:30.978Z,98510.03
2022-09-17T10:29:32.302Z,98509.16
2022-09-17T10:32:33.620Z,98509.16
2022-09-17T10:35:34.937Z,98510.03
2022-09-17T10:38:40.204Z,98511.75
2022-09-17T10:41:44.732Z,98514.38
2022-09-17T10:44:53.306Z,98505.69
2022-09-17T10:47:55.109Z,98506.53
2022-09-17T10:50:56.486Z,98511.78
2022-09-17T10:53:59.919Z,98511.75
2022-09-17T10:57:01.248Z,98520.41
2022-09-17T11:00:15.804Z,98519.56
2022-09-17T11:03:20.150Z,98517.84
2022-09-17T11:06:24.699Z,98514.34
2022-09-17T11:09:44.753Z,98509.13
2022-09-17T11:12:50.617Z,98509.03
2022-09-17T11:15:53.143Z,98501.97
2022-09-17T11:18:58.597Z,98504.47
2022-09-17T11:22:06.531Z,98525.03
2022-09-17T11:25:22.305Z,98532.56
2022-09-17T11:28:23.579Z,98527.16
2022-09-17T11:31:34.150Z,98518.47
2022-09-17T11:34:36.033Z,98517.69
2022-09-17T11:37:38.417Z,98512.53
2022-09-17T11:40:48.783Z,98508.19
2022-09-17T11:44:08.806Z,98500.00
2022-09-17T11:47:10.088Z,98508.91
2022-09-17T11:50:34.762Z,98498.75
2022-09-17T11:53:37.999Z,98498.59
2022-09-17T11:56:43.318Z,98490.53
2022-09-17T11:59:50.737Z,98494.75
2022-09-17T12:02:52.117Z,98501.13
2022-09-17T12:05:54.790Z,98483.44
2022-09-17T12:09:14.939Z,98498.31
2022-09-17T12:12:37.832Z,98490.13
2022-09-17T12:15:38.726Z,98491.19
2022-09-17T12:18:58.353Z,98485.34
2022-09-17T12:22:12.974Z,98483.69
2022-09-17T12:25:14.362Z,98483.81
2022-09-17T12:28:21.953Z,98467.44
2022-09-17T12:31:32.426Z,98470.00
2022-09-17T12:34:42.202Z,98475.34
2022-09-17T12:38:02.293Z,98480.56
2022-09-17T12:41:03.584Z,98480.63
2022-09-17T12:44:15.750Z,98480.66
2022-09-17T12:47:17.024Z,98479.88
2022-09-17T12:50:20.553Z,98484.31
2022-09-17T12:53:29.047Z,98473.94
2022-09-17T12:56:37.075Z,98462.72
2022-09-17T12:59:40.783Z,98468.00
2022-09-17T13:02:42.123Z,98466.31
2022-09-17T13:05:49.569Z,98459.34
2022-09-17T13:09:00.041Z,98461.84
2022-09-17T13:12:12.392Z,98467.03
2022-09-17T13:15:13.653Z,98461.81
2022-09-17T13:18:27.849Z,98462.59
2022-09-17T13:21:40.447Z,98463.53
2022-09-17T13:24:44.773Z,98471.47
2022-09-17T13:27:48.587Z,98455.78
2022-09-17T13:30:57.058Z,98459.34
2022-09-17T13:33:59.126Z,98454.94
2022-09-17T13:37:01.205Z,98450.56
2022-09-17T13:40:02.954Z,98446.28
2022-09-17T13:43:04.283Z,98445.59
2022-09-17T13:46:08.834Z,98429.84
2022-09-17T13:49:13.742Z,98425.44
2022-09-17T13:52:15.050Z,98428.97
2022-09-17T13:55:35.132Z,98436.69
2022-09-17T13:58:36.476Z,98440.91
2022-09-17T14:01:56.623Z,98445.09
2022-09-17T14:05:17.941Z,98447.78
2022-09-17T14:08:30.463Z,98445.25
2022-09-17T14:11:33.443Z,98441.72
2022-09-17T14:14:39.489Z,98442.06
2022-09-17T14:17:53.456Z,98446.31
2022-09-17T14:21:21.237Z,98440.50
2022-09-17T14:24:22.510Z,98437.13
2022-09-17T14:27:29.981Z,98432.81
2022-09-17T14:30:31.654Z,98441.22
2022-09-17T14:33:33.060Z,98428.53
2022-09-17T14:36:37.629Z,98416.41
2022-09-17T14:39:39.219Z,98409.47
2022-09-17T14:42:40.570Z,98414.59
2022-09-17T14:45:42.048Z,98417.97
2022-09-17T14:48:43.390Z,98423.22
2022-09-17T14:51:44.759Z,98420.53
2022-09-17T14:54:46.118Z,98429.44
2022-09-17T14:57:54.224Z,98421.69
2022-09-17T15:00:55.532Z,98423.41
2022-09-17T15:04:12.261Z,98410.28
2022-09-17T15:07:13.583Z,98397.19
2022-09-17T15:10:19.360Z,98397.97
2022-09-17T15:13:43.969Z,98425.88
2022-09-17T15:16:51.862Z,98418.22
2022-09-17T15:19:54.594Z,98406.91
2022-09-17T15:22:57.939Z,98394.00
2022-09-17T15:25:59.278Z,98413.25
2022-09-17T15:29:00.614Z,98414.19
2022-09-17T15:32:06.037Z,98409.78
2022-09-17T15:35:13.583Z,98409.66
2022-09-17T15:38:23.333Z,98419.22
2022-09-17T15:41:27.768Z,98415.81
2022-09-17T15:44:30.811Z,98420.22
2022-09-17T15:47:45.152Z,98409.78
2022-09-17T15:50:50.589Z,98402.00
2022-09-17T15:53:52.921Z,98407.28
2022-09-17T15:56:55.004Z,98396.84
2022-09-17T15:59:56.390Z,98396.03
2022-09-17T16:02:57.923Z,98398.69
2022-09-17T16:06:04.009Z,98412.63
2022-09-17T16:09:25.991Z,98447.41
2022-09-17T16:12:28.865Z,98429.13
2022-09-17T16:15:30.182Z,98438.66
2022-09-17T16:18:31.539Z,98433.47
2022-09-17T16:21:32.845Z,98427.41
2022-09-17T16:24:34.166Z,98422.19
2022-09-17T16:27:39.209Z,98429.09
2022-09-17T16:30:40.891Z,98422.16
2022-09-17T16:33:42.235Z,98422.13
2022-09-17T16:36:43.550Z,98422.16
2022-09-17T16:39:44.867Z,98430.84
2022-09-17T16:42:46.503Z,98436.09
2022-09-17T16:46:00.332Z,98443.06
2022-09-17T16:49:01.813Z,98474.38
2022-09-17T16:52:03.172Z,98470.88
2022-09-17T16:55:04.803Z,98466.56
2022-09-17T16:58:06.180Z,98463.94
2022-09-17T17:01:11.651Z,98463.09
2022-09-17T17:04:13.096Z,98461.34
2022-09-17T17:07:14.419Z,98462.19
2022-09-17T17:10:15.817Z,98467.44
2022-09-17T17:13:17.279Z,98467.41
2022-09-17T17:16:18.700Z,98471.75
2022-09-17T17:19:20.107Z,98460.47
2022-09-17T17:22:21.502Z,98466.53
2022-09-17T17:25:23.794Z,98457.88
2022-09-17T17:28:25.117Z,98464.81
2022-09-17T17:31:26.666Z,98462.22
2022-09-17T17:34:28.060Z,98463.97
2022-09-17T17:37:29.372Z,98461.34
2022-09-17T17:40:30.756Z,98455.28
2022-09-17T17:43:32.187Z,98464.81
2022-09-17T17:46:33.634Z,98466.53
2022-09-17T17:49:35.079Z,98481.31
2022-09-17T17:52:38.401Z,98482.19
2022-09-17T17:55:39.706Z,98476.97
2022-09-17T17:58:41.016Z,98483.06
2022-09-17T18:01:42.538Z,98483.06
2022-09-17T18:04:43.970Z,98489.16
2022-09-17T18:07:45.350Z,98483.94
2022-09-17T18:10:53.434Z,98490.91
2022-09-17T18:13:55.346Z,98496.09
2022-09-17T18:16:56.691Z,98490.88
2022-09-17T18:19:58.157Z,98488.28
2022-09-17T18:22:59.475Z,98495.25
2022-09-17T18:26:00.964Z,98499.59
2022-09-17T18:29:07.030Z,98503.06
2022-09-17T18:32:09.205Z,98515.25
2022-09-17T18:35:10.520Z,98521.31
2022-09-17T18:38:11.847Z,98528.28
2022-09-17T18:41:13.416Z,98537.81
2022-09-17T18:44:14.769Z,98544.75
2022-09-17T18:47:17.402Z,98543.03
2022-09-17T18:50:18.752Z,98559.56
2022-09-17T18:53:20.174Z,98555.19
2022-09-17T18:56:21.455Z,98558.69
2022-09-17T18:59:22.808Z,98566.50
2022-09-17T19:02:24.334Z,98575.19
2022-09-17T19:05:25.840Z,98575.19
2022-09-17T19:08:27.187Z,98584.72
2022-09-17T19:11:28.718Z,98578.66
2022-09-17T19:14:30.191Z,98588.22
2022-09-17T19:17:31.785Z,98587.34
2022-09-17T19:20:37.137Z,98597.78
2022-09-17T19:23:45.203Z,98599.53
2022-09-17T19:26:50.746Z,98604.75
2022-09-17T19:29:55.113Z,98600.38
2022-09-17T19:33:07.950Z,98600.31
2022-09-17T19:36:17.939Z,98602.91
2022-09-17T19:39:35.967Z,98609.03
2022-09-17T19:42:39.962Z,98605.56
2022-09-17T19:45:41.344Z,98605.59
2022-09-17T19:48:43.546Z,98615.13
2022-09-17T19:51:45.208Z,98609.94
2022-09-17T19:54:46.757Z,98618.59
2022-09-17T19:57:48.208Z,98624.69
2022-09-17T20:01:07.394Z,98616.84
2022-09-17T20:04:09.875Z,98619.41
2022-09-17T20:07:11.348Z,98619.47
2022-09-17T20:10:12.862Z,98614.25
2022-09-17T20:13:15.608Z,98625.56
2022-09-17T20:16:18.391Z,98623.78
2022-09-17T20:19:20.090Z,98622.03
2022-09-17T20:22:21.588Z,98625.56
2022-09-17T20:25:25.707Z,98626.44
2022-09-17T20:28:27.154Z,98637.72
2022-09-17T20:31:30.350Z,98634.25
2022-09-17T20:34:31.968Z,98634.28
2022-09-17T20:38:32.906Z,98633.41
2022-09-17T20:41:07.841Z,98625.56
2022-09-17T20:44:19.135Z,98633.38
2022-09-17T20:47:20.707Z,98632.53
2022-09-17T20:50:22.172Z,98627.31
2022-09-17T20:53:23.965Z,98629.91
2022-09-17T20:56:26.713Z,98633.41
2022-09-17T20:59:49.394Z,98635.97
2022-09-17T21:02:53.250Z,98647.28
2022-09-17T21:06:20.320Z,98648.16
2022-09-17T21:09:28.982Z,98655.09
2022-09-17T21:12:30.597Z,98656.00
2022-09-17T21:15:32.190Z,98652.50
2022-09-17T21:18:43.170Z,98655.97
2022-09-17T21:21:47.547Z,98661.19
2022-09-17T21:24:52.134Z,98660.25
2022-09-17T21:27:58.770Z,98659.38
2022-09-17T21:31:08.431Z,98657.69
2022-09-17T21:34:12.534Z,98666.41
2022-09-17T21:37:17.072Z,98668.97
2022-09-17T21:40:26.980Z,98672.47
2022-09-17T21:43:53.789Z,98665.53
2022-09-17T21:46:57.790Z,98667.25
2022-09-17T21:50:02.974Z,98663.78
2022-09-17T21:53:04.704Z,98664.69
2022-09-17T21:56:26.736Z,98666.41
2022-09-17T21:59:32.349Z,98664.69
2022-09-17T22:02:39.364Z,98657.69
2022-09-17T22:05:42.612Z,98655.03
2022-09-17T22:08:44.400Z,98658.53
2022-09-17T22:11:48.048Z,98655.97
2022-09-17T22:15:14.876Z,98654.16
2022-09-17T22:18:42.410Z,98657.63
2022-09-17T22:21:51.537Z,98657.63
2022-09-17T22:24:53.293Z,98652.41
2022-09-17T22:28:20.127Z,98659.44
2022-09-17T22:31:23.043Z,98662.03
2022-09-17T22:34:30.957Z,98667.28
2022-09-17T22:37:51.325Z,98662.06
2022-09-17T22:40:55.238Z,98664.66
2022-09-17T22:44:10.758Z,98664.66
2022-09-17T22:47:14.567Z,98662.91
2022-09-17T22:50:23.896Z,98668.13
2022-09-17T22:53:35.613Z,98664.66
2022-09-17T22:56:47.872Z,98668.13
2022-09-17T23:03:22.640Z,98664.63
2022-09-17T23:06:34.941Z,98668.06
2022-09-17T23:10:19.301Z,98664.59
2022-09-17T23:13:58.127Z,98668.91
2022-09-17T23:21:43.379Z,98669.00
2022-09-17T23:24:45.159Z,98671.59
2022-09-17T23:27:51.778Z,98675.09
2022-09-17T23:31:33.418Z,98682.03
2022-09-17T23:34:48.682Z,98678.53
2022-09-17T23:38:02.957Z,98679.34
2022-09-17T23:48:14.961Z,98688.09
2022-09-17T23:51:28.378Z,98688.00
2022-09-17T23:58:08.738Z,98693.22
